Time;durP1;ratioP1;P1;durP2;ratioP2;P2;SDS_P1;SDS_P2;PMS_P1;PMS_P2;Temp;Humidity;BMP_temperature;BMP_pressure;BME280_temperature;BME280_humidity;BME280_pressure;Samples;Min_cycle;Max_cycle;Signal;HPM_P1;HPM_P2
2023/07/05 00:01:28;;;;;;;13.63;7.75;;;22.20;86.00;;;;;;5112397;28;20067;-70
2023/07/05 00:03:54;;;;;;;12.05;7.07;;;22.20;86.00;;;;;;5112593;28;20030;-70
2023/07/05 00:06:19;;;;;;;13.32;7.25;;;22.20;86.30;;;;;;5112097;28;20106;-70
2023/07/05 00:08:45;;;;;;;12.70;7.50;;;22.20;86.00;;;;;;5112530;28;20084;-70
2023/07/05 00:11:11;;;;;;;14.90;7.95;;;22.20;85.90;;;;;;5112294;28;20059;-70
2023/07/05 00:13:37;;;;;;;13.68;7.53;;;22.20;85.50;;;;;;5112518;28;20031;-70
2023/07/05 00:16:03;;;;;;;12.93;8.38;;;22.20;85.80;;;;;;5113111;28;20493;-70
2023/07/05 00:18:29;;;;;;;14.60;7.97;;;22.20;86.10;;;;;;5115886;28;20016;-70
2023/07/05 00:21:03;;;;;;;14.43;7.47;;;22.20;86.20;;;;;;5116493;28;20027;-70
2023/07/05 00:23:31;;;;;;;12.25;7.25;;;22.10;86.60;;;;;;5115755;28;20031;-69
2023/07/05 00:25:56;;;;;;;13.00;7.65;;;22.20;86.30;;;;;;5116744;27;20139;-70
2023/07/05 00:28:22;;;;;;;15.82;8.15;;;22.10;86.40;;;;;;5118033;27;20099;-69
2023/07/05 00:30:48;;;;;;;12.82;7.20;;;22.00;86.80;;;;;;5116429;28;20460;-69
2023/07/05 00:33:14;;;;;;;9.65;6.90;;;22.00;87.00;;;;;;5097769;28;20182;-70
2023/07/05 00:35:51;;;;;;;9.95;6.68;;;22.00;87.20;;;;;;5098163;28;20027;-69
2023/07/05 00:38:18;;;;;;;11.98;7.00;;;22.00;87.30;;;;;;5115958;28;20483;-69
2023/07/05 00:40:44;;;;;;;12.68;6.55;;;22.00;87.80;;;;;;5098238;28;20038;-69
2023/07/05 00:43:11;;;;;;;12.88;6.40;;;21.90;88.20;;;;;;5115460;28;20024;-70
2023/07/05 00:45:51;;;;;;;8.85;6.60;;;21.90;88.30;;;;;;5116097;28;20028;-70
2023/07/05 00:48:19;;;;;;;11.10;6.65;;;21.90;88.70;;;;;;5115708;28;20470;-70
2023/07/05 00:50:48;;;;;;;10.30;6.82;;;21.90;88.90;;;;;;5115667;28;20035;-69
2023/07/05 00:53:14;;;;;;;10.82;6.05;;;21.80;89.00;;;;;;5115544;28;20035;-70
2023/07/05 00:55:45;;;;;;;9.40;6.38;;;21.80;89.60;;;;;;5116877;27;20031;-70
2023/07/05 00:58:12;;;;;;;10.68;6.07;;;21.80;89.40;;;;;;5129860;27;20364;-70
2023/07/05 01:00:38;;;;;;;10.30;6.63;;;21.70;89.50;;;;;;5115869;28;20031;-69
2023/07/05 01:03:10;;;;;;;11.13;6.38;;;21.70;89.50;;;;;;5097698;28;20028;-69
2023/07/05 01:05:36;;;;;;;11.48;6.97;;;21.70;89.90;;;;;;5115930;28;20167;-70
2023/07/05 01:08:04;;;;;;;10.57;6.70;;;21.70;89.80;;;;;;5115561;28;20537;-70
2023/07/05 01:10:30;;;;;;;11.48;6.90;;;21.60;90.00;;;;;;5096924;28;20035;-69
2023/07/05 01:13:04;;;;;;;8.40;6.65;;;21.60;90.10;;;;;;5115678;28;20024;-69
2023/07/05 01:15:31;;;;;;;11.55;6.20;;;21.60;90.10;;;;;;5114984;28;20499;-69
2023/07/05 01:18:03;;;;;;;11.93;7.13;;;21.50;90.10;;;;;;5115681;28;20031;-69
2023/07/05 01:20:51;;;;;;;11.45;7.00;;;21.50;90.20;;;;;;5114996;28;20071;-70
2023/07/05 01:23:45;;;;;;;10.35;6.82;;;21.60;90.20;;;;;;5115379;28;20059;-69
2023/07/05 01:26:31;;;;;;;10.30;7.07;;;21.50;90.40;;;;;;5115137;28;20380;-69
2023/07/05 01:29:02;;;;;;;11.02;7.00;;;21.50;90.50;;;;;;5114100;28;20024;-70
2023/07/05 01:31:40;;;;;;;11.75;6.43;;;21.40;90.40;;;;;;5114543;28;20097;-70
2023/07/05 01:34:16;;;;;;;8.55;6.22;;;21.40;90.40;;;;;;5115363;28;20028;-70
2023/07/05 01:36:42;;;;;;;11.75;6.72;;;21.40;90.30;;;;;;5097132;28;20575;-70
2023/07/05 01:39:07;;;;;;;13.02;6.78;;;21.40;90.40;;;;;;5115592;28;20071;-70
2023/07/05 01:41:33;;;;;;;10.98;6.22;;;21.40;90.30;;;;;;5114736;28;20068;-71
2023/07/05 01:43:58;;;;;;;10.75;6.53;;;21.40;90.20;;;;;;5115737;28;20464;-70
2023/07/05 01:46:30;;;;;;;9.93;6.28;;;21.40;90.20;;;;;;5114567;28;20043;-70
2023/07/05 01:49:05;;;;;;;11.40;6.28;;;21.40;90.10;;;;;;5096582;28;20369;-70
2023/07/05 01:51:51;;;;;;;8.57;6.18;;;21.30;90.20;;;;;;5114110;28;20032;-70
2023/07/05 01:54:23;;;;;;;10.18;6.30;;;21.30;90.20;;;;;;5114550;28;20028;-70
2023/07/05 01:57:05;;;;;;;12.90;6.65;;;21.30;90.20;;;;;;5114959;28;20111;-70
2023/07/05 01:59:37;;;;;;;11.07;6.93;;;21.30;90.30;;;;;;5114357;28;20031;-70
2023/07/05 02:02:06;;;;;;;11.15;6.20;;;21.30;90.40;;;;;;5096241;28;20375;-70
2023/07/05 02:04:35;;;;;;;10.32;7.30;;;21.30;90.30;;;;;;5114161;28;20027;-70
2023/07/05 02:07:05;;;;;;;9.88;5.90;;;21.30;90.40;;;;;;5114655;28;20059;-70
2023/07/05 02:09:38;;;;;;;11.93;7.60;;;21.30;90.70;;;;;;5114138;28;20027;-70
2023/07/05 02:12:05;;;;;;;10.05;6.28;;;21.30;90.80;;;;;;5114542;28;20118;-70
2023/07/05 02:14:31;;;;;;;8.93;6.20;;;21.30;91.00;;;;;;5113967;28;20468;-71
2023/07/05 02:16:56;;;;;;;9.70;6.32;;;21.30;90.90;;;;;;5114504;28;20019;-70
2023/07/05 02:19:22;;;;;;;9.40;6.55;;;21.30;91.10;;;;;;5115425;27;20019;-70
2023/07/05 02:21:47;;;;;;;11.02;7.03;;;21.30;90.90;;;;;;5134549;27;20034;-70
2023/07/05 02:24:13;;;;;;;13.50;6.35;;;21.30;90.90;;;;;;5134496;27;20120;-70
2023/07/05 02:26:39;;;;;;;10.85;7.47;;;21.30;91.10;;;;;;5134321;27;20025;-70
2023/07/05 02:29:04;;;;;;;10.05;6.53;;;21.30;91.10;;;;;;5134458;27;20031;-70
2023/07/05 02:31:30;;;;;;;11.23;6.13;;;21.20;91.00;;;;;;5134246;27;20054;-70
2023/07/05 02:33:56;;;;;;;8.32;6.10;;;21.20;91.00;;;;;;5134721;27;20039;-70
2023/07/05 02:36:21;;;;;;;12.90;6.82;;;21.20;90.90;;;;;;5134169;27;20027;-70
2023/07/05 02:38:47;;;;;;;8.90;6.32;;;21.10;91.20;;;;;;5134207;27;20023;-70
2023/07/05 02:41:13;;;;;;;10.50;6.60;;;21.00;91.00;;;;;;5134180;27;20042;-70
2023/07/05 02:43:38;;;;;;;10.25;6.55;;;21.00;91.10;;;;;;5133976;27;20029;-70
2023/07/05 02:46:05;;;;;;;8.25;6.13;;;21.00;91.20;;;;;;5134113;27;20472;-71
2023/07/05 02:48:32;;;;;;;10.73;6.78;;;21.00;91.50;;;;;;5133975;27;20023;-70
2023/07/05 02:50:57;;;;;;;10.20;5.88;;;21.00;91.30;;;;;;5134240;27;20467;-70
2023/07/05 02:53:23;;;;;;;9.90;6.60;;;21.00;91.50;;;;;;5133698;27;20031;-70
2023/07/05 02:55:50;;;;;;;11.65;6.22;;;20.90;91.50;;;;;;5134227;27;20111;-70
2023/07/05 02:58:16;;;;;;;13.40;6.22;;;20.80;91.60;;;;;;5128905;27;20019;-70
2023/07/05 03:00:43;;;;;;;9.95;6.85;;;20.80;92.00;;;;;;5112821;28;20032;-70
2023/07/05 03:03:08;;;;;;;10.95;6.53;;;20.80;92.10;;;;;;5128547;27;20031;-70
2023/07/05 03:05:34;;;;;;;9.98;5.97;;;20.80;91.70;;;;;;5133657;27;20023;-70
2023/07/05 03:07:59;;;;;;;9.73;6.10;;;20.80;91.60;;;;;;5133977;27;20402;-70
2023/07/05 03:10:25;;;;;;;10.00;5.80;;;20.70;91.50;;;;;;5133712;27;20024;-70
2023/07/05 03:12:51;;;;;;;12.05;6.50;;;20.70;91.60;;;;;;5133889;27;20114;-70
2023/07/05 03:15:16;;;;;;;9.57;5.53;;;20.60;91.60;;;;;;5134026;27;20030;-70
2023/07/05 03:17:43;;;;;;;8.32;5.20;;;20.60;91.60;;;;;;5133020;27;20023;-70
2023/07/05 03:20:09;;;;;;;9.68;6.30;;;20.60;91.60;;;;;;5133506;27;20109;-70
2023/07/05 03:22:35;;;;;;;10.15;5.30;;;20.50;91.80;;;;;;5133316;27;20390;-70
2023/07/05 03:25:00;;;;;;;8.45;5.78;;;20.50;91.90;;;;;;5133662;27;20031;-70
2023/07/05 03:27:28;;;;;;;14.25;6.38;;;20.50;91.90;;;;;;5133108;27;20058;-70
2023/07/05 03:29:55;;;;;;;8.88;5.78;;;20.50;91.80;;;;;;5133841;27;20035;-70
2023/07/05 03:32:21;;;;;;;9.80;6.22;;;20.40;91.80;;;;;;5133574;28;20067;-70
2023/07/05 03:34:47;;;;;;;7.65;5.55;;;20.40;92.00;;;;;;5133747;28;20475;-70
2023/07/05 03:37:16;;;;;;;10.45;6.25;;;20.30;92.20;;;;;;5133646;28;20031;-70
2023/07/05 03:39:41;;;;;;;9.52;6.15;;;20.30;92.30;;;;;;5133295;28;20537;-70
2023/07/05 03:42:07;;;;;;;9.95;5.47;;;20.30;92.60;;;;;;5133623;28;20428;-70
2023/07/05 03:44:33;;;;;;;10.20;5.50;;;20.20;92.70;;;;;;5133247;28;20023;-70
2023/07/05 03:46:58;;;;;;;11.68;5.97;;;20.20;92.70;;;;;;5114736;28;20380;-70
2023/07/05 03:49:24;;;;;;;10.85;7.00;;;20.20;92.70;;;;;;5133230;28;20027;-70
2023/07/05 03:51:50;;;;;;;9.20;6.40;;;20.30;92.60;;;;;;5135571;27;20171;-69
2023/07/05 03:54:15;;;;;;;8.75;6.55;;;20.30;92.60;;;;;;5119710;27;20517;-69
2023/07/05 03:56:41;;;;;;;9.18;6.10;;;20.30;92.70;;;;;;5137050;27;20055;-70
2023/07/05 03:59:07;;;;;;;10.52;6.60;;;20.30;92.90;;;;;;5137368;27;20046;-70
2023/07/05 04:01:33;;;;;;;10.57;6.35;;;20.30;92.90;;;;;;5137147;27;20378;-70
2023/07/05 04:04:01;;;;;;;11.63;6.93;;;20.40;92.70;;;;;;5137448;27;20027;-70
2023/07/05 04:06:31;;;;;;;10.02;6.35;;;20.40;92.80;;;;;;5137085;27;20464;-70
2023/07/05 04:08:57;;;;;;;9.50;6.22;;;20.50;92.70;;;;;;5137454;27;20027;-69
2023/07/05 04:11:23;;;;;;;11.52;6.10;;;20.50;93.00;;;;;;5136988;27;20046;-70
2023/07/05 04:13:50;;;;;;;9.90;6.43;;;20.60;92.60;;;;;;5136660;27;20039;-70
2023/07/05 04:16:18;;;;;;;11.57;6.40;;;20.70;92.30;;;;;;5137007;27;20027;-70
2023/07/05 04:18:45;;;;;;;9.98;5.65;;;20.80;91.80;;;;;;5125054;27;20058;-70
2023/07/05 04:21:11;;;;;;;10.75;6.55;;;20.90;91.50;;;;;;5116415;28;20058;-70
2023/07/05 04:23:40;;;;;;;8.02;5.90;;;21.00;91.20;;;;;;5116141;28;20062;-70
2023/07/05 04:26:11;;;;;;;8.52;6.03;;;21.10;90.70;;;;;;5116517;28;20114;-71
2023/07/05 04:28:38;;;;;;;10.48;6.97;;;21.20;90.30;;;;;;5115914;28;20067;-71
2023/07/05 04:31:07;;;;;;;7.93;6.05;;;21.40;89.20;;;;;;5115966;28;20067;-71
2023/07/05 04:33:33;;;;;;;8.25;5.80;;;21.50;88.90;;;;;;5116020;28;20035;-70
2023/07/05 04:35:59;;;;;;;8.88;5.40;;;21.70;87.80;;;;;;5116407;28;20107;-70
2023/07/05 04:38:26;;;;;;;9.43;6.55;;;21.90;86.40;;;;;;5116339;28;20087;-70
2023/07/05 04:40:53;;;;;;;8.98;5.55;;;22.20;84.40;;;;;;5116200;28;20157;-70
2023/07/05 04:43:19;;;;;;;8.55;5.93;;;22.40;82.40;;;;;;5116225;28;20020;-70
2023/07/05 04:45:58;;;;;;;10.20;6.30;;;22.50;81.60;;;;;;5115387;28;20077;-70
2023/07/05 04:48:25;;;;;;;9.30;5.63;;;22.50;81.50;;;;;;5116542;28;20050;-70
2023/07/05 04:50:54;;;;;;;9.60;5.03;;;22.70;80.10;;;;;;5115747;28;20028;-70
2023/07/05 04:53:25;;;;;;;8.48;4.50;;;22.80;79.40;;;;;;5116064;28;20137;-71
2023/07/05 04:55:52;;;;;;;9.18;5.40;;;23.00;78.30;;;;;;5115474;28;20023;-70
2023/07/05 04:58:19;;;;;;;11.18;5.07;;;23.20;77.70;;;;;;5124479;27;20102;-72
2023/07/05 05:00:51;;;;;;;8.50;5.15;;;23.40;76.90;;;;;;5115806;28;20402;-71
2023/07/05 05:03:19;;;;;;;9.80;5.65;;;23.70;75.60;;;;;;5115666;28;20103;-71
2023/07/05 05:05:47;;;;;;;8.63;5.57;;;24.10;74.40;;;;;;5115154;28;20027;-71
2023/07/05 05:08:13;;;;;;;9.10;4.68;;;24.40;71.50;;;;;;5115844;28;20036;-71
2023/07/05 05:10:39;;;;;;;7.55;4.13;;;24.90;70.80;;;;;;5114931;28;20028;-71
2023/07/05 05:13:07;;;;;;;8.77;4.70;;;25.30;68.30;;;;;;5115477;28;20023;-71
2023/07/05 05:15:39;;;;;;;9.30;5.15;;;25.30;66.70;;;;;;5115161;28;20039;-70
2023/07/05 05:18:08;;;;;;;7.25;4.63;;;25.10;67.50;;;;;;5115455;28;20386;-71
2023/07/05 05:20:37;;;;;;;6.40;4.55;;;24.90;68.10;;;;;;5115206;28;20032;-70
2023/07/05 05:23:03;;;;;;;7.55;5.15;;;24.70;69.00;;;;;;5115666;28;20020;-71
2023/07/05 05:25:29;;;;;;;9.18;5.00;;;24.50;69.90;;;;;;5115521;28;20064;-71
2023/07/05 05:27:55;;;;;;;7.65;4.60;;;24.30;70.70;;;;;;5115070;28;20035;-70
2023/07/05 05:30:20;;;;;;;9.75;5.13;;;24.20;71.30;;;;;;5096876;28;20119;-69
2023/07/05 05:32:47;;;;;;;8.75;4.95;;;23.90;72.00;;;;;;5114774;28;20027;-71
2023/07/05 05:35:13;;;;;;;10.88;4.28;;;23.80;72.70;;;;;;5114894;28;20384;-70
2023/07/05 05:37:39;;;;;;;6.47;4.28;;;23.70;73.20;;;;;;5114611;28;20471;-71
2023/07/05 05:40:06;;;;;;;7.32;4.93;;;23.60;73.90;;;;;;5115083;28;20028;-71
2023/07/05 05:42:32;;;;;;;8.43;4.97;;;23.50;74.10;;;;;;5114615;28;20034;-72
2023/07/05 05:44:58;;;;;;;6.63;5.07;;;23.50;75.20;;;;;;5114995;28;20063;-70
2023/07/05 05:47:23;;;;;;;7.07;5.00;;;23.40;75.60;;;;;;5115141;28;20102;-71
2023/07/05 05:49:49;;;;;;;8.63;4.85;;;23.40;76.70;;;;;;5114386;28;20024;-71
2023/07/05 05:52:15;;;;;;;10.68;5.15;;;23.20;77.30;;;;;;5114852;28;20472;-70
2023/07/05 05:54:40;;;;;;;12.82;6.00;;;23.10;78.50;;;;;;5114110;28;20107;-70
2023/07/05 05:57:06;;;;;;;9.35;5.57;;;23.00;79.40;;;;;;5115058;28;20035;-69
2023/07/05 05:59:32;;;;;;;8.55;5.70;;;23.00;80.30;;;;;;5114899;28;20027;-69
2023/07/05 06:01:58;;;;;;;10.52;6.03;;;23.00;82.30;;;;;;5114323;28;20098;-69
2023/07/05 06:04:23;;;;;;;10.75;5.90;;;23.00;83.30;;;;;;5114588;28;20023;-69
2023/07/05 06:06:49;;;;;;;12.77;5.97;;;23.50;84.70;;;;;;5114302;28;20456;-69
2023/07/05 06:09:15;;;;;;;11.07;6.03;;;24.70;82.40;;;;;;5114423;28;20486;-69
2023/07/05 06:11:41;;;;;;;10.35;5.95;;;25.60;78.80;;;;;;5113693;28;20084;-70
2023/07/05 06:14:08;;;;;;;11.52;5.65;;;26.60;74.50;;;;;;5113571;28;20365;-70
2023/07/05 06:16:34;;;;;;;7.90;5.88;;;27.70;71.60;;;;;;5113975;28;20027;-72
2023/07/05 06:18:59;;;;;;;11.85;5.53;;;28.70;68.70;;;;;;5114031;28;20491;-70
2023/07/05 06:21:25;;;;;;;7.22;5.43;;;29.50;64.80;;;;;;5114263;28;20027;-70
2023/07/05 06:23:51;;;;;;;9.77;5.20;;;29.60;63.10;;;;;;5114147;28;20031;-70
2023/07/05 06:26:20;;;;;;;8.02;5.07;;;29.10;63.00;;;;;;5116697;27;20020;-70
2023/07/05 06:28:46;;;;;;;6.80;4.90;;;28.90;64.10;;;;;;5113597;28;20028;-70
2023/07/05 06:31:12;;;;;;;7.40;5.60;;;28.40;64.10;;;;;;5095751;28;20039;-70
2023/07/05 06:33:40;;;;;;;9.93;5.60;;;27.90;65.00;;;;;;5113606;28;20119;-70
2023/07/05 06:36:07;;;;;;;7.40;5.60;;;27.60;65.90;;;;;;5113862;28;20024;-70
2023/07/05 06:38:33;;;;;;;7.18;5.22;;;27.30;67.20;;;;;;5095580;28;20374;-70
2023/07/05 06:40:59;;;;;;;6.97;5.03;;;27.80;67.70;;;;;;5113429;28;20032;-70
2023/07/05 06:43:25;;;;;;;8.27;5.10;;;28.10;65.00;;;;;;5113890;28;20080;-70
2023/07/05 06:45:53;;;;;;;9.55;5.43;;;27.80;64.70;;;;;;5113076;28;20051;-69
2023/07/05 06:48:19;;;;;;;7.18;5.10;;;27.40;66.10;;;;;;5113818;28;20071;-71
2023/07/05 06:50:53;;;;;;;7.47;5.03;;;27.00;67.70;;;;;;5113249;28;20034;-71
2023/07/05 06:53:19;;;;;;;10.70;4.85;;;26.70;68.70;;;;;;5113592;28;20039;-71
2023/07/05 06:55:48;;;;;;;9.55;5.28;;;26.40;69.10;;;;;;5123093;27;20026;-70
2023/07/05 06:58:14;;;;;;;7.07;4.68;;;26.10;70.30;;;;;;5134174;27;20019;-69
2023/07/05 07:00:40;;;;;;;7.82;4.85;;;25.90;70.90;;;;;;5133621;27;20027;-70
2023/07/05 07:03:05;;;;;;;6.75;4.63;;;25.70;71.70;;;;;;5134340;27;20027;-71
2023/07/05 07:05:31;;;;;;;8.88;4.88;;;25.90;73.90;;;;;;5133724;27;20019;-71
2023/07/05 07:07:57;;;;;;;8.30;4.95;;;26.10;70.00;;;;;;5122322;27;20195;-71
2023/07/05 07:10:22;;;;;;;6.70;4.80;;;26.30;68.50;;;;;;5113537;28;20402;-71
2023/07/05 07:12:48;;;;;;;7.22;5.15;;;26.20;67.80;;;;;;5112738;28;20028;-70
2023/07/05 07:15:14;;;;;;;7.78;4.78;;;26.10;68.60;;;;;;5113325;28;20046;-70
2023/07/05 07:17:39;;;;;;;8.48;4.90;;;25.90;69.60;;;;;;5094991;28;20035;-71
2023/07/05 07:20:07;;;;;;;7.85;4.78;;;25.70;70.40;;;;;;5113337;28;20027;-71
2023/07/05 07:22:33;;;;;;;8.77;5.47;;;25.50;71.50;;;;;;5113236;28;20360;-70
2023/07/05 07:24:59;;;;;;;9.57;4.60;;;25.40;71.40;;;;;;5112444;28;20039;-71
2023/07/05 07:27:25;;;;;;;6.15;4.57;;;25.30;72.00;;;;;;5113195;28;20022;-70
2023/07/05 07:29:52;;;;;;;7.78;4.78;;;25.10;72.20;;;;;;5112655;28;20023;-71
2023/07/05 07:32:18;;;;;;;10.48;4.80;;;25.10;73.20;;;;;;5113147;28;20028;-71
2023/07/05 07:34:43;;;;;;;6.95;4.95;;;25.00;73.70;;;;;;5112707;28;20020;-69
2023/07/05 07:37:09;;;;;;;7.32;5.20;;;24.90;74.00;;;;;;5113115;28;20023;-69
2023/07/05 07:39:35;;;;;;;11.18;5.43;;;24.80;74.00;;;;;;5113063;28;20349;-70
2023/07/05 07:42:00;;;;;;;10.93;5.57;;;24.80;73.80;;;;;;5112527;28;20194;-70
2023/07/05 07:44:26;;;;;;;9.23;5.30;;;24.70;74.70;;;;;;5112906;28;20028;-70
2023/07/05 07:46:52;;;;;;;11.55;4.97;;;24.60;75.40;;;;;;5112528;28;20043;-70
2023/07/05 07:49:17;;;;;;;8.05;5.45;;;24.50;75.90;;;;;;5113054;28;20072;-70
2023/07/05 07:51:45;;;;;;;10.52;4.93;;;24.40;76.60;;;;;;5077471;28;20472;-70
2023/07/05 07:54:26;;;;;;;8.98;5.05;;;24.40;76.60;;;;;;5095101;28;20031;-70
2023/07/05 07:56:55;;;;;;;7.22;5.18;;;24.30;76.90;;;;;;5094464;28;20034;-71
2023/07/05 07:59:21;;;;;;;7.88;5.40;;;24.30;77.00;;;;;;5112792;28;20024;-70
2023/07/05 08:01:47;;;;;;;6.97;4.75;;;24.30;76.80;;;;;;5112609;28;20035;-69
2023/07/05 08:04:14;;;;;;;8.23;5.45;;;24.20;77.50;;;;;;5112954;28;20031;-70
2023/07/05 08:06:42;;;;;;;8.63;5.07;;;24.30;77.40;;;;;;5112827;28;20032;-70
2023/07/05 08:09:11;;;;;;;7.88;5.30;;;24.30;78.30;;;;;;5112866;28;20102;-70
2023/07/05 08:11:39;;;;;;;8.75;5.05;;;24.50;78.10;;;;;;5094402;28;20081;-70
2023/07/05 08:14:09;;;;;;;7.20;4.65;;;24.70;77.40;;;;;;5112469;28;20388;-71
2023/07/05 08:16:35;;;;;;;9.40;4.43;;;24.70;77.30;;;;;;5112721;28;20027;-71
2023/07/05 08:19:01;;;;;;;10.25;4.88;;;24.90;77.20;;;;;;5114960;28;20028;-71
2023/07/05 08:21:26;;;;;;;6.47;4.20;;;24.90;77.20;;;;;;5112777;28;20038;-71
2023/07/05 08:23:52;;;;;;;15.13;4.63;;;25.10;76.90;;;;;;5112383;28;20026;-70
2023/07/05 08:26:18;;;;;;;9.23;4.43;;;25.10;74.50;;;;;;5112824;28;20016;-71
2023/07/05 08:28:46;;;;;;;7.72;4.05;;;25.20;74.30;;;;;;5094107;28;20028;-73
2023/07/05 08:31:12;;;;;;;8.90;4.32;;;25.30;72.90;;;;;;5112902;28;20077;-71
2023/07/05 08:33:40;;;;;;;7.60;4.10;;;25.30;72.30;;;;;;5112566;28;20084;-70
2023/07/05 08:36:09;;;;;;;8.27;3.97;;;25.30;71.40;;;;;;5112119;28;20452;-71
2023/07/05 08:38:38;;;;;;;6.60;3.92;;;25.40;71.70;;;;;;5115630;28;20081;-70
2023/07/05 08:41:31;;;;;;;6.40;4.32;;;25.50;72.20;;;;;;5115948;28;20039;-71
2023/07/05 08:44:09;;;;;;;9.18;4.50;;;25.80;71.60;;;;;;5115750;28;20023;-70
2023/07/05 08:46:38;;;;;;;10.23;4.55;;;26.00;71.20;;;;;;5115666;28;20047;-70
2023/07/05 08:49:12;;;;;;;8.73;3.90;;;26.30;69.70;;;;;;5115632;28;20027;-71
2023/07/05 08:51:39;;;;;;;7.45;4.45;;;26.40;68.80;;;;;;5116242;28;20045;-70
2023/07/05 08:54:10;;;;;;;9.50;4.68;;;26.60;68.50;;;;;;5115222;28;20490;-70
2023/07/05 08:56:44;;;;;;;7.95;4.53;;;26.60;67.60;;;;;;5116021;28;20106;-71
2023/07/05 08:59:10;;;;;;;5.45;3.92;;;26.60;67.70;;;;;;5115869;28;20111;-71
2023/07/05 09:01:38;;;;;;;9.07;5.35;;;26.60;68.20;;;;;;5128331;27;20110;-71
2023/07/05 09:04:12;;;;;;;6.65;4.65;;;26.60;68.30;;;;;;5117137;27;20100;-71
2023/07/05 09:07:01;;;;;;;7.40;4.70;;;26.70;68.70;;;;;;5115869;28;20028;-71
2023/07/05 09:09:44;;;;;;;8.10;4.32;;;26.80;69.30;;;;;;5115523;28;20016;-71
2023/07/05 09:12:37;;;;;;;5.75;4.47;;;26.90;69.50;;;;;;5114989;28;20379;-71
2023/07/05 09:15:11;;;;;;;7.72;4.95;;;27.10;69.90;;;;;;5115274;28;20032;-71
2023/07/05 09:17:49;;;;;;;6.78;4.63;;;27.20;69.20;;;;;;5115240;28;20069;-71
2023/07/05 09:20:27;;;;;;;7.93;4.57;;;27.40;68.80;;;;;;5115581;28;20123;-71
2023/07/05 09:22:55;;;;;;;7.90;4.68;;;27.40;68.60;;;;;;5115117;28;20077;-71
2023/07/05 09:25:23;;;;;;;6.22;4.15;;;27.50;68.10;;;;;;5115298;28;20028;-71
2023/07/05 09:27:56;;;;;;;7.20;5.25;;;27.50;68.10;;;;;;5114918;28;20030;-71
2023/07/05 09:30:25;;;;;;;7.28;4.60;;;27.60;68.60;;;;;;5115490;28;20032;-71
2023/07/05 09:33:12;;;;;;;10.40;4.60;;;27.70;67.40;;;;;;5096485;28;20027;-71
2023/07/05 09:35:42;;;;;;;9.15;4.45;;;27.70;66.90;;;;;;5115140;28;20392;-71
2023/07/05 09:38:14;;;;;;;17.10;4.65;;;27.80;65.60;;;;;;5114835;28;20032;-71
2023/07/05 09:41:12;;;;;;;8.05;4.25;;;27.80;64.20;;;;;;5114835;28;20092;-71
2023/07/05 09:43:38;;;;;;;5.18;4.07;;;27.90;63.40;;;;;;5115181;28;20051;-71
2023/07/05 09:46:13;;;;;;;6.93;4.05;;;28.00;62.90;;;;;;5114573;28;20056;-71
2023/07/05 09:48:43;;;;;;;10.40;4.32;;;28.10;62.20;;;;;;5113922;28;20097;-71
2023/07/05 09:51:11;;;;;;;5.55;3.88;;;28.20;61.40;;;;;;5114643;28;20038;-71
2023/07/05 09:53:51;;;;;;;8.15;4.50;;;28.30;60.00;;;;;;5114800;28;20035;-71
2023/07/05 09:56:29;;;;;;;13.50;4.47;;;28.40;59.70;;;;;;5114815;28;20023;-71
2023/07/05 09:59:13;;;;;;;6.68;4.13;;;28.50;60.10;;;;;;5114264;28;20024;-71
2023/07/05 10:01:47;;;;;;;6.25;3.60;;;28.70;60.20;;;;;;5114672;28;20039;-71
2023/07/05 10:04:13;;;;;;;6.20;3.67;;;28.80;57.00;;;;;;5114200;28;20101;-71
2023/07/05 10:06:41;;;;;;;3.95;3.13;;;28.90;56.00;;;;;;5114624;28;20032;-71
2023/07/05 10:09:19;;;;;;;7.72;3.70;;;29.00;55.60;;;;;;5114001;28;20020;-71
2023/07/05 10:11:47;;;;;;;4.60;3.55;;;29.10;55.90;;;;;;5114262;28;20476;-72
2023/07/05 10:14:19;;;;;;;6.75;3.45;;;29.20;56.30;;;;;;5114045;28;20051;-71
2023/07/05 10:16:54;;;;;;;8.15;3.47;;;29.30;54.60;;;;;;5114515;28;20016;-71
2023/07/05 10:19:29;;;;;;;6.65;4.18;;;29.40;55.60;;;;;;5114511;28;20479;-71
2023/07/05 10:22:01;;;;;;;7.65;4.40;;;29.50;55.90;;;;;;5113450;28;20395;-71
2023/07/05 10:24:29;;;;;;;4.90;3.97;;;29.60;55.70;;;;;;5114023;28;20379;-71
2023/07/05 10:27:24;;;;;;;6.47;4.30;;;29.60;55.40;;;;;;5113503;28;20073;-70
2023/07/05 10:29:57;;;;;;;7.63;4.00;;;29.60;55.80;;;;;;5133064;27;20443;-71
2023/07/05 10:32:23;;;;;;;6.85;3.95;;;29.70;56.00;;;;;;5134642;27;20530;-71
2023/07/05 10:34:50;;;;;;;5.97;4.00;;;29.70;55.80;;;;;;5134792;27;20106;-70
2023/07/05 10:37:28;;;;;;;5.65;4.10;;;29.70;55.60;;;;;;5133895;27;20031;-70
2023/07/05 10:39:54;;;;;;;4.78;4.03;;;29.70;55.60;;;;;;5133755;27;20034;-73
2023/07/05 10:42:19;;;;;;;6.70;3.45;;;29.70;55.30;;;;;;5134312;27;20023;-70
2023/07/05 10:44:45;;;;;;;7.22;3.67;;;29.80;55.20;;;;;;5133879;27;20034;-70
2023/07/05 10:47:13;;;;;;;5.00;4.28;;;29.80;55.10;;;;;;5133478;27;20070;-70
2023/07/05 10:49:39;;;;;;;7.07;3.78;;;29.70;54.50;;;;;;5133878;27;20592;-70
2023/07/05 10:52:10;;;;;;;6.95;3.75;;;29.80;54.60;;;;;;5133439;27;20114;-71
2023/07/05 10:55:00;;;;;;;4.80;3.90;;;29.90;54.20;;;;;;5134260;27;20112;-70
2023/07/05 10:57:40;;;;;;;5.40;3.40;;;29.80;54.40;;;;;;5134258;27;20379;-71
2023/07/05 11:00:21;;;;;;;9.20;4.50;;;29.80;54.10;;;;;;5132216;27;20424;-71
2023/07/05 11:03:03;;;;;;;7.50;4.05;;;29.90;54.30;;;;;;5093921;28;20348;-70
2023/07/05 11:05:38;;;;;;;5.22;4.30;;;29.80;54.40;;;;;;5113399;28;20035;-70
2023/07/05 11:08:11;;;;;;;7.28;4.03;;;29.90;54.60;;;;;;5113328;28;20047;-70
2023/07/05 11:10:41;;;;;;;5.38;3.83;;;29.90;54.30;;;;;;5118262;27;20383;-70
2023/07/05 11:13:11;;;;;;;;;;;29.90;54.10;;;;;;5133842;27;20024;-70
2023/07/05 11:15:38;;;;;;;5.10;3.60;;;29.90;54.00;;;;;;5133980;27;19904;-70
2023/07/05 11:18:07;;;;;;;5.32;3.70;;;29.80;53.60;;;;;;5133349;27;20038;-70
2023/07/05 11:20:33;;;;;;;4.45;3.78;;;29.70;53.60;;;;;;5133569;27;20114;-70
2023/07/05 11:22:58;;;;;;;7.53;3.80;;;29.60;54.20;;;;;;5132881;27;20121;-70
2023/07/05 11:25:52;;;;;;;9.57;3.90;;;29.60;53.60;;;;;;5133402;27;20080;-69
2023/07/05 11:28:37;;;;;;;5.60;3.47;;;29.50;53.60;;;;;;5132896;27;20033;-70
2023/07/05 11:31:05;;;;;;;8.20;4.05;;;29.60;53.40;;;;;;5132426;27;20364;-71
2023/07/05 11:33:31;;;;;;;5.82;3.72;;;29.50;53.00;;;;;;5133352;27;20543;-71
2023/07/05 11:36:01;;;;;;;4.72;3.67;;;29.50;52.90;;;;;;5133383;28;20075;-71
2023/07/05 11:38:36;;;;;;;11.48;4.05;;;29.50;53.50;;;;;;5133429;28;20498;-71
2023/07/05 11:41:40;;;;;;;6.88;4.15;;;29.40;52.80;;;;;;5133020;28;20487;-71
2023/07/05 11:44:29;;;;;;;5.85;3.97;;;29.30;51.90;;;;;;5049392;28;20021;-72
2023/07/05 11:46:55;;;;;;;4.88;3.75;;;29.30;52.60;;;;;;5130240;28;20047;-71
2023/07/05 11:49:21;;;;;;;5.10;3.67;;;29.20;52.80;;;;;;5132825;28;20020;-71
2023/07/05 11:52:04;;;;;;;4.70;3.60;;;29.20;53.10;;;;;;5133288;28;20035;-70
2023/07/05 11:55:08;;;;;;;6.47;3.50;;;29.10;53.40;;;;;;5133534;28;20035;-70
2023/07/05 11:57:46;;;;;;;5.93;3.90;;;29.10;53.20;;;;;;5101766;28;20039;-70
2023/07/05 12:00:18;;;;;;;6.38;3.78;;;29.00;53.40;;;;;;5132955;28;20023;-70
2023/07/05 12:02:50;;;;;;;7.47;3.45;;;28.90;53.40;;;;;;5133367;28;20030;-71
2023/07/05 12:05:21;;;;;;;4.35;3.53;;;28.80;53.80;;;;;;5132870;28;20463;-70
2023/07/05 12:07:52;;;;;;;5.68;3.70;;;28.80;53.90;;;;;;5133314;28;20452;-70
2023/07/05 12:10:20;;;;;;;7.00;3.97;;;28.70;53.70;;;;;;5132309;28;20447;-71
2023/07/05 12:12:46;;;;;;;11.98;2.50;;;28.60;53.90;;;;;;5135093;27;20034;-70
2023/07/05 12:15:13;;;;;;;5.63;2.55;;;28.30;50.00;;;;;;5136775;27;20385;-70
2023/07/05 12:17:40;;;;;;;5.43;2.10;;;27.90;50.30;;;;;;5137213;27;20057;-70
2023/07/05 12:20:13;;;;;;;3.38;2.20;;;27.70;50.90;;;;;;5136699;27;20075;-70
2023/07/05 12:22:39;;;;;;;8.02;2.25;;;27.50;51.80;;;;;;5137291;27;20058;-71
2023/07/05 12:25:05;;;;;;;7.40;2.30;;;27.30;54.40;;;;;;5136820;27;20027;-72
2023/07/05 12:27:32;;;;;;;5.45;2.78;;;27.00;56.00;;;;;;5118760;27;20423;-71
2023/07/05 12:30:00;;;;;;;5.50;2.45;;;26.30;60.30;;;;;;5118511;27;20391;-71
2023/07/05 12:32:28;;;;;;;5.78;2.63;;;25.60;64.30;;;;;;5136715;27;20110;-72
2023/07/05 12:35:27;;;;;;;6.88;2.70;;;24.70;67.50;;;;;;5133608;27;20015;-71
2023/07/05 12:37:56;;;;;;;8.95;2.95;;;24.00;74.00;;;;;;5092025;27;20104;-70
2023/07/05 12:40:30;;;;;;;9.68;3.53;;;23.30;78.80;;;;;;5136425;27;20526;-70
2023/07/05 12:43:04;;;;;;;16.33;4.45;;;23.20;83.10;;;;;;5136877;27;20033;-70
2023/07/05 12:45:33;;;;;;;8.13;3.72;;;23.20;87.00;;;;;;5136696;27;20015;-70
2023/07/05 12:48:20;;;;;;;8.77;3.75;;;22.80;89.90;;;;;;5136758;27;20458;-70
2023/07/05 12:50:47;;;;;;;7.05;3.58;;;22.60;90.00;;;;;;5136663;27;20027;-70
2023/07/05 12:53:20;;;;;;;8.35;3.83;;;22.40;89.60;;;;;;5136484;27;20494;-69
2023/07/05 12:55:56;;;;;;;7.95;3.42;;;22.20;90.70;;;;;;5134775;27;20485;-70